Azalea, OR

12:09 AM PDT on April 28, 2017 (GMT -0700)
Knoll Terrace | | Change Station

Elev 975 ft 42.92 °N, 123.29 °W | Updated 8 seconds ago

Overcast
Overcast
41.1 °F
Feels Like 41 °F
N
2.0
Wind Variable Wind from NNE

Today
High -- | Low -- °F
--% Chance of Precip.
Yesterday
High -- | Low -- °F
Precip. -- in
Pressure 30.28 in
Visibility 10.0 miles
Clouds Clear
Windchill 41 °F
Dew Point 37 °F
Humidity 86%
Rainfall 0.00 in
Snow Depth Not available.
6:10 AM 8:10 PM
Waxing Crescent, 5% visible
METAR KRBG 280653Z AUTO 00000KT 10SM CLR 06/04 A3027 RMK AO2 SLP252 T00560039
Pressure 30.28 in
Visibility 10.0 miles
Clouds Clear
Windchill 41 °F
Dew Point 37 °F
Humidity 86%
Rainfall 0.00 in
Snow Depth Not available.
6:10 AM 8:10 PM
Waxing Crescent, 5% visible
METAR KRBG 280653Z AUTO 00000KT 10SM CLR 06/04 A3027 RMK AO2 SLP252 T00560039

Get Severe Weather Alerts

Thanks for signing up!

Be on the lookout for a verification email in your inbox.

You'll start receiving the daily forecast at 8 AM.

×

10-Day Weather Forecast

Almanac

Astronomy

Apr. 28, 2017 Rise Set
Actual Time
Civil Twilight
Nautical Twilight
Astronomical Twilight
Moon
Length of Visible Light
Length of Day
Tomorrow will be .
, % of the Moon is Illuminated

Today's Extremes

State Highs State Lows

Community

WunderPhotos

WunderBlog® & News

Nearby

Air Quality

  Air Quality AQ Index Pollutant
Not available.

Snow Depth

Station Depth Elevation

Earthquake Activity

City Distance Mag. Time & Date
Minimum magnitude displayed is 2.5.

Coastal Water Temperatures

Place Temperature

Stations

Nearby Weather Stations

Station Location Temp. Windchill Dew Point Humidity Wind Precip. Elev Updated Type
                   

Watches & Warnings

There are currently no watches in effect.